createdAt,value
2022-11-10T13:55:39.853Z,98118.94
2022-11-10T13:58:32.549Z,98124.09
2022-11-10T14:01:18.822Z,98130.59
2022-11-10T14:04:05.395Z,98126.34
2022-11-10T14:06:55.810Z,98125.31
2022-11-10T14:09:46.592Z,98134.84
2022-11-10T14:12:46.712Z,98139.31
2022-11-10T14:15:42.391Z,98132.06
2022-11-10T14:18:39.978Z,98143.56
2022-11-10T14:21:34.164Z,98147.38
2022-11-10T14:24:30.368Z,98128.34
2022-11-10T14:27:23.846Z,98142.59
2022-11-10T14:30:30.592Z,98146.72
2022-11-10T14:33:16.374Z,98139.34
2022-11-10T14:36:09.119Z,98144.25
2022-11-10T14:38:55.332Z,98141.34
2022-11-10T14:41:51.364Z,98142.91
2022-11-10T14:44:37.633Z,98144.25
2022-11-10T14:47:31.529Z,98140.88
2022-11-10T14:50:21.374Z,98141.00
2022-11-10T14:53:20.505Z,98147.03
2022-11-10T14:56:14.350Z,98140.97
2022-11-10T14:59:03.209Z,98142.56
2022-11-10T15:01:56.415Z,98140.34
2022-11-10T15:04:45.739Z,98142.13
2022-11-10T15:07:32.414Z,98138.75
2022-11-10T15:10:37.056Z,98141.78
2022-11-10T15:13:32.091Z,98141.66
2022-11-10T15:16:38.916Z,98141.00
2022-11-10T15:19:29.367Z,98145.81
2022-11-10T15:22:32.914Z,98139.41
2022-11-10T15:25:21.818Z,98142.44
2022-11-10T15:28:13.984Z,98143.47
2022-11-10T15:31:06.581Z,98142.66
2022-11-10T15:33:57.976Z,98141.00
2022-11-10T15:36:44.199Z,98130.34
2022-11-10T15:39:30.455Z,98141.75
2022-11-10T15:42:19.666Z,98136.53
2022-11-10T15:45:06.194Z,98139.22
2022-11-10T15:47:52.450Z,98126.44
2022-11-10T15:50:39.106Z,98137.53
2022-11-10T15:53:39.042Z,98134.28
2022-11-10T15:56:25.808Z,98134.41
2022-11-10T15:59:11.992Z,98143.91
2022-11-10T16:01:58.044Z,98144.81
2022-11-10T16:04:43.640Z,98134.53
2022-11-10T16:07:30.991Z,98136.53
2022-11-10T16:10:17.027Z,98135.75
2022-11-10T16:13:03.734Z,98128.81
2022-11-10T16:15:50.267Z,98133.84
2022-11-10T16:18:39.956Z,98136.97
2022-11-10T16:21:29.804Z,98139.31
2022-11-10T16:24:18.592Z,98136.88
2022-11-10T16:27:13.098Z,98141.34
2022-11-10T16:29:58.930Z,98134.28
2022-11-10T16:32:46.282Z,98143.00
2022-11-10T16:35:32.465Z,98152.31
2022-11-10T16:38:30.153Z,98151.50
2022-11-10T16:41:16.331Z,98149.63
2022-11-10T16:44:02.042Z,98148.50
2022-11-10T16:46:53.223Z,98157.13
2022-11-10T16:49:44.265Z,98152.75
2022-11-10T16:52:31.474Z,98151.19
2022-11-10T16:55:17.112Z,98155.44
2022-11-10T16:58:03.175Z,98144.81
2022-11-10T17:00:49.149Z,98140.88
2022-11-10T17:03:40.969Z,98147.28
2022-11-10T17:06:28.897Z,98149.06
2022-11-10T17:09:28.395Z,98145.84
2022-11-10T17:12:15.143Z,98141.56
2022-11-10T17:15:01.097Z,98136.06
2022-11-10T17:17:50.980Z,98146.59
2022-11-10T17:20:39.965Z,98136.31
2022-11-10T17:23:26.930Z,98133.63
2022-11-10T17:26:16.429Z,98136.06
2022-11-10T17:29:02.401Z,98131.28
2022-11-10T17:31:50.618Z,98149.41
2022-11-10T17:34:36.415Z,98144.72
2022-11-10T17:37:22.905Z,98147.72
2022-11-10T17:40:19.155Z,98139.88
2022-11-10T17:43:05.215Z,98135.19
2022-11-10T17:45:52.047Z,98155.47
2022-11-10T17:48:37.933Z,98152.66
2022-11-10T17:51:23.875Z,98142.66
2022-11-10T17:54:14.558Z,98153.19
2022-11-10T17:57:00.714Z,98130.25
2022-11-10T17:59:46.352Z,98139.22
2022-11-10T18:02:32.626Z,98140.09
2022-11-10T18:05:19.139Z,98139.22
2022-11-10T18:08:06.073Z,98131.47
2022-11-10T18:10:53.524Z,98130.03
2022-11-10T18:13:40.801Z,98126.78
2022-11-10T18:16:27.421Z,98134.72
2022-11-10T18:19:13.470Z,98130.13
2022-11-10T18:21:59.554Z,98121.72
2022-11-10T18:24:45.414Z,98130.38
2022-11-10T18:27:32.058Z,98126.78
2022-11-10T18:30:39.095Z,98120.75
2022-11-10T18:33:52.112Z,98117.72
2022-11-10T18:36:41.677Z,98114.25
2022-11-10T18:39:28.770Z,98115.59
2022-11-10T18:42:14.767Z,98110.97
2022-11-10T18:45:00.842Z,98109.09
2022-11-10T18:47:46.924Z,98108.75
2022-11-10T18:50:33.005Z,98108.06
2022-11-10T18:53:19.182Z,98111.22
2022-11-10T18:56:05.964Z,98108.88
2022-11-10T18:58:56.599Z,98100.34
2022-11-10T19:01:43.774Z,98094.22
2022-11-10T19:04:30.623Z,98096.22
2022-11-10T19:07:16.731Z,98098.44
2022-11-10T19:10:03.905Z,98101.47
2022-11-10T19:12:50.023Z,98106.06
2022-11-10T19:15:41.177Z,98106.19
2022-11-10T19:18:30.425Z,98101.81
2022-11-10T19:21:19.751Z,98102.50
2022-11-10T19:24:06.013Z,98108.19
2022-11-10T19:26:52.408Z,98105.50
2022-11-10T19:29:38.500Z,98100.22
2022-11-10T19:32:25.133Z,98097.13
2022-11-10T19:35:12.495Z,98097.44
2022-11-10T19:37:58.395Z,98089.25
2022-11-10T19:40:44.854Z,98092.97
2022-11-10T19:43:31.561Z,98099.13
2022-11-10T19:46:20.177Z,98094.44
2022-11-10T19:49:06.577Z,98088.63
2022-11-10T19:51:52.623Z,98094.63
2022-11-10T19:54:38.681Z,98093.09
2022-11-10T19:57:24.812Z,98088.16
2022-11-10T20:00:12.752Z,98088.94
2022-11-10T20:02:58.442Z,98087.38
2022-11-10T20:05:46.593Z,98088.63
2022-11-10T20:08:33.041Z,98092.84
2022-11-10T20:11:27.354Z,98083.13
2022-11-10T20:14:13.382Z,98087.47
2022-11-10T20:16:59.536Z,98083.69
2022-11-10T20:19:45.325Z,98081.66
2022-11-10T20:22:31.510Z,98083.91
2022-11-10T20:25:17.360Z,98084.22
2022-11-10T20:28:06.633Z,98082.78
2022-11-10T20:30:56.826Z,98088.38
2022-11-10T20:33:42.829Z,98088.50
2022-11-10T20:36:31.824Z,98085.25
2022-11-10T20:39:18.077Z,98075.84
2022-11-10T20:42:03.975Z,98076.28
2022-11-10T20:44:50.889Z,98076.38
2022-11-10T20:47:36.855Z,98069.13
2022-11-10T20:50:24.628Z,98078.72
2022-11-10T20:53:10.592Z,98068.31
2022-11-10T20:56:02.221Z,98060.50
2022-11-10T20:58:49.317Z,98059.16
2022-11-10T21:01:35.649Z,98057.56
2022-11-10T21:04:21.708Z,98059.63
2022-11-10T21:07:07.927Z,98054.88
2022-11-10T21:09:53.782Z,98061.41
2022-11-10T21:12:50.208Z,98065.63
2022-11-10T21:15:39.534Z,98071.13
2022-11-10T21:18:34.099Z,98060.50
2022-11-10T21:21:34.880Z,98053.09
2022-11-10T21:24:21.140Z,98051.56
2022-11-10T21:27:07.389Z,98047.97
2022-11-10T21:29:53.300Z,98047.16
2022-11-10T21:32:39.349Z,98048.63
2022-11-10T21:35:26.455Z,98030.28
2022-11-10T21:38:13.596Z,98044.81
2022-11-10T21:40:59.854Z,98039.91
2022-11-10T21:43:45.594Z,98029.25
2022-11-10T21:46:31.757Z,98041.47
2022-11-10T21:49:17.722Z,98003.53
2022-11-10T21:52:03.755Z,98036.19
2022-11-10T21:54:49.828Z,98038.75
2022-11-10T21:57:35.598Z,98034.88
2022-11-10T22:00:21.717Z,98036.22
2022-11-10T22:03:07.916Z,98040.81
2022-11-10T22:05:53.609Z,98037.31
2022-11-10T22:08:41.384Z,98050.41
2022-11-10T22:11:46.184Z,98038.81
2022-11-10T22:14:50.820Z,98033.75
2022-11-10T22:17:55.371Z,98030.41
2022-11-10T22:20:41.579Z,98016.63
2022-11-10T22:23:46.396Z,98024.69
2022-11-10T22:26:32.665Z,98013.94
2022-11-10T22:29:18.476Z,98012.91
2022-11-10T22:32:04.640Z,98007.78
2022-11-10T22:34:50.517Z,98011.59
2022-11-10T22:37:36.607Z,98009.25
2022-11-10T22:40:40.899Z,98003.06
2022-11-10T22:43:45.410Z,98001.19
2022-11-10T22:46:33.400Z,98000.59
2022-11-10T22:49:24.186Z,98004.09
2022-11-10T22:52:10.518Z,98004.53
2022-11-10T22:54:57.920Z,98000.41
2022-11-10T22:57:43.712Z,98005.00
2022-11-10T23:00:29.939Z,97994.69
2022-11-10T23:03:16.008Z,97995.13
2022-11-10T23:06:01.969Z,97997.13
2022-11-10T23:08:47.757Z,97997.03
2022-11-10T23:11:34.251Z,97992.53
2022-11-10T23:14:20.291Z,97999.38
2022-11-10T23:17:06.302Z,97997.81
2022-11-10T23:19:52.408Z,97996.69
2022-11-10T23:22:38.471Z,97995.56
2022-11-10T23:25:24.423Z,98004.66
2022-11-10T23:28:10.398Z,97990.00
2022-11-10T23:31:13.135Z,97994.22
2022-11-10T23:33:58.871Z,97993.25
2022-11-10T23:36:44.947Z,97979.59
2022-11-10T23:39:31.011Z,97987.97
2022-11-10T23:42:16.759Z,97982.75
2022-11-10T23:45:03.002Z,97974.22
2022-11-10T23:47:48.738Z,97971.31
2022-11-10T23:50:34.812Z,97973.66
2022-11-10T23:53:21.165Z,97970.19
2022-11-10T23:56:12.180Z,97966.28
2022-11-10T23:58:57.908Z,97965.81
